createdAt,value
2022-10-09T00:01:22.213Z,17.77
2022-10-09T00:03:49.732Z,19.08
2022-10-09T00:06:34.976Z,17.92
2022-10-09T00:09:02.572Z,19.08
2022-10-09T00:11:30.078Z,18.45
2022-10-09T00:13:57.129Z,18.20
2022-10-09T00:16:24.036Z,21.77
2022-10-09T00:18:50.759Z,19.75
2022-10-09T00:21:23.113Z,23.05
2022-10-09T00:23:50.264Z,22.20
2022-10-09T00:26:16.943Z,26.25
2022-10-09T00:28:43.561Z,23.95
2022-10-09T00:31:10.767Z,27.88
2022-10-09T00:33:37.744Z,28.58
2022-10-09T00:36:09.235Z,29.05
2022-10-09T00:38:35.751Z,27.63
2022-10-09T00:41:02.280Z,31.52
2022-10-09T00:43:46.599Z,31.25
2022-10-09T00:46:18.376Z,31.90
2022-10-09T00:48:45.585Z,33.80
2022-10-09T00:51:12.046Z,34.63
2022-10-09T00:53:38.469Z,32.88
2022-10-09T00:56:05.071Z,32.10
2022-10-09T00:58:31.494Z,33.85
2022-10-09T01:00:58.002Z,33.40
2022-10-09T01:03:24.482Z,32.58
2022-10-09T01:05:51.008Z,31.30
2022-10-09T01:08:25.981Z,33.55
2022-10-09T01:11:01.646Z,34.15
2022-10-09T01:13:50.233Z,33.08
2022-10-09T01:16:23.968Z,31.98
2022-10-09T01:18:53.624Z,31.38
2022-10-09T01:21:21.127Z,29.70
2022-10-09T01:23:53.804Z,28.77
2022-10-09T01:26:49.664Z,29.47
2022-10-09T01:29:16.525Z,29.40
2022-10-09T01:31:45.318Z,29.17
2022-10-09T01:34:13.124Z,29.92
2022-10-09T01:36:40.113Z,26.98
2022-10-09T01:39:08.878Z,27.40
2022-10-09T01:41:35.430Z,27.15
2022-10-09T01:44:01.876Z,26.75
2022-10-09T01:46:29.945Z,25.83
2022-10-09T01:49:05.637Z,22.73
2022-10-09T01:51:36.292Z,22.90
2022-10-09T01:54:05.505Z,23.23
2022-10-09T01:56:33.935Z,22.08
2022-10-09T01:59:04.051Z,22.83
2022-10-09T02:01:35.472Z,23.83
2022-10-09T02:04:05.539Z,23.75
2022-10-09T02:06:32.428Z,23.45
2022-10-09T02:08:59.314Z,25.75
2022-10-09T02:11:27.767Z,23.85
2022-10-09T02:13:55.041Z,24.60
2022-10-09T02:16:24.556Z,22.20
2022-10-09T02:18:58.720Z,21.35
2022-10-09T02:21:46.578Z,22.88
2022-10-09T02:24:15.477Z,23.30
2022-10-09T02:26:42.390Z,23.40
2022-10-09T02:29:09.385Z,23.85
2022-10-09T02:31:37.878Z,20.85
2022-10-09T02:34:05.847Z,22.77
2022-10-09T02:36:32.705Z,20.17
2022-10-09T02:38:59.439Z,18.92
2022-10-09T02:41:26.460Z,19.55
2022-10-09T02:43:53.118Z,17.98
2022-10-09T02:46:20.026Z,17.25
2022-10-09T02:48:46.541Z,20.20
2022-10-09T02:51:13.009Z,17.52
2022-10-09T02:53:39.426Z,17.05
2022-10-09T02:56:05.985Z,17.92
2022-10-09T02:58:33.126Z,18.00
2022-10-09T03:00:59.559Z,18.17
2022-10-09T03:03:26.172Z,16.17
2022-10-09T03:06:12.229Z,17.63
2022-10-09T03:08:39.976Z,18.83
2022-10-09T03:11:06.717Z,17.73
2022-10-09T03:13:33.494Z,16.60
2022-10-09T03:16:07.327Z,17.02
2022-10-09T03:18:34.203Z,16.70
2022-10-09T03:21:00.825Z,19.40
2022-10-09T03:23:27.282Z,17.48
2022-10-09T03:25:57.635Z,15.95
2022-10-09T03:28:24.260Z,17.65
2022-10-09T03:30:50.833Z,17.13
2022-10-09T03:33:17.292Z,16.85
2022-10-09T03:35:45.003Z,15.65
2022-10-09T03:38:11.437Z,17.65
2022-10-09T03:40:37.914Z,16.42
2022-10-09T03:43:04.487Z,14.05
2022-10-09T03:45:30.976Z,15.23
2022-10-09T03:47:57.511Z,14.35
2022-10-09T03:50:24.478Z,15.73
2022-10-09T03:52:51.259Z,16.80
2022-10-09T03:55:17.934Z,15.77
2022-10-09T03:57:44.367Z,14.63
2022-10-09T04:00:11.279Z,15.43
2022-10-09T04:02:37.798Z,15.07
2022-10-09T04:05:04.608Z,13.80
2022-10-09T04:07:31.006Z,15.18
2022-10-09T04:09:57.434Z,15.45
2022-10-09T04:12:23.941Z,12.10
2022-10-09T04:14:50.422Z,15.45
2022-10-09T04:17:16.873Z,15.02
2022-10-09T04:19:43.398Z,12.52
2022-10-09T04:22:09.927Z,13.90
2022-10-09T04:24:36.380Z,15.43
2022-10-09T04:27:02.792Z,13.30
2022-10-09T04:29:29.220Z,14.77
2022-10-09T04:31:55.744Z,15.30
2022-10-09T04:34:22.239Z,15.75
2022-10-09T04:36:48.722Z,14.10
2022-10-09T04:39:15.228Z,18.05
2022-10-09T04:41:41.661Z,14.60
2022-10-09T04:44:08.109Z,15.80
2022-10-09T04:46:34.646Z,15.75
2022-10-09T04:49:01.230Z,15.10
2022-10-09T04:51:27.765Z,14.38
2022-10-09T04:54:00.304Z,16.13
2022-10-09T04:56:27.263Z,16.13
2022-10-09T04:58:53.760Z,15.05
2022-10-09T05:01:21.677Z,18.52
2022-10-09T05:03:48.370Z,16.42
2022-10-09T05:06:15.549Z,18.13
2022-10-09T05:08:42.453Z,17.80
2022-10-09T05:11:11.254Z,17.75
2022-10-09T05:13:38.653Z,17.98
2022-10-09T05:16:06.286Z,21.17
2022-10-09T05:18:32.835Z,16.25
2022-10-09T05:20:59.413Z,16.98
2022-10-09T05:23:25.881Z,18.85
2022-10-09T05:25:56.110Z,16.38
2022-10-09T05:28:22.943Z,16.55
2022-10-09T05:30:49.623Z,17.00
2022-10-09T05:33:16.253Z,16.42
2022-10-09T05:35:50.531Z,16.00
2022-10-09T05:38:17.051Z,17.10
2022-10-09T05:40:50.424Z,15.65
2022-10-09T05:43:16.841Z,14.80
2022-10-09T05:45:43.300Z,11.95
2022-10-09T05:48:09.777Z,12.27
2022-10-09T05:50:36.294Z,12.05
2022-10-09T05:53:02.818Z,11.05
2022-10-09T05:55:29.269Z,9.82
2022-10-09T05:57:55.721Z,9.98
2022-10-09T06:00:22.224Z,12.10
2022-10-09T06:02:48.929Z,10.20
2022-10-09T06:05:15.692Z,9.90
2022-10-09T06:07:42.161Z,9.75
2022-10-09T06:10:08.827Z,9.43
2022-10-09T06:12:35.320Z,7.18
2022-10-09T06:15:01.800Z,9.25
2022-10-09T06:17:28.266Z,7.88
2022-10-09T06:19:54.721Z,10.25
2022-10-09T06:22:21.158Z,8.82
2022-10-09T06:24:47.688Z,6.68
2022-10-09T06:27:14.240Z,6.32
2022-10-09T06:29:40.707Z,8.40
2022-10-09T06:32:07.214Z,6.90
2022-10-09T06:34:33.707Z,5.65
2022-10-09T06:37:00.158Z,8.23
2022-10-09T06:39:26.714Z,6.32
2022-10-09T06:41:53.137Z,8.55
2022-10-09T06:44:49.363Z,7.97
2022-10-09T06:47:16.193Z,9.00
2022-10-09T06:49:42.667Z,7.60
2022-10-09T06:52:09.167Z,7.10
2022-10-09T06:54:35.655Z,7.15
2022-10-09T06:57:02.112Z,7.32
2022-10-09T06:59:28.629Z,12.82
2022-10-09T07:01:56.928Z,6.93
2022-10-09T07:04:23.590Z,9.48
2022-10-09T07:06:50.182Z,6.85
2022-10-09T07:09:16.781Z,11.52
2022-10-09T07:11:44.817Z,8.70
2022-10-09T07:14:12.037Z,7.80
2022-10-09T07:16:39.975Z,5.78
2022-10-09T07:19:08.233Z,6.65
2022-10-09T07:21:35.176Z,6.35
2022-10-09T07:24:02.259Z,8.02
2022-10-09T07:26:30.608Z,7.32
2022-10-09T07:28:57.356Z,5.38
2022-10-09T07:31:23.912Z,5.60
2022-10-09T07:33:51.249Z,6.15
2022-10-09T07:36:18.158Z,7.32
2022-10-09T07:38:44.968Z,5.55
2022-10-09T07:41:12.996Z,8.55
2022-10-09T07:43:40.113Z,6.70
2022-10-09T07:46:07.636Z,6.80
2022-10-09T07:48:35.249Z,6.70
2022-10-09T07:51:13.277Z,5.97
2022-10-09T07:53:39.815Z,8.60
2022-10-09T07:56:06.807Z,7.97
2022-10-09T07:58:33.369Z,5.30
2022-10-09T08:01:03.951Z,4.15
2022-10-09T08:03:30.455Z,7.13
2022-10-09T08:05:56.967Z,6.40
2022-10-09T08:08:23.893Z,7.85
2022-10-09T08:10:50.385Z,7.18
2022-10-09T08:13:16.935Z,6.15
2022-10-09T08:15:44.138Z,5.20
2022-10-09T08:18:11.089Z,7.50
2022-10-09T08:20:37.718Z,5.18
2022-10-09T08:23:04.260Z,6.50
2022-10-09T08:25:34.074Z,6.55
2022-10-09T08:28:00.522Z,6.93
2022-10-09T08:30:26.988Z,5.32
2022-10-09T08:32:53.450Z,5.55
2022-10-09T08:35:19.898Z,8.80
2022-10-09T08:37:46.587Z,7.22
2022-10-09T08:40:22.839Z,7.10
2022-10-09T08:42:58.344Z,4.80
2022-10-09T08:45:24.848Z,6.25
2022-10-09T08:47:56.547Z,5.68
2022-10-09T08:50:25.959Z,5.78
2022-10-09T08:52:55.764Z,6.22
2022-10-09T08:55:24.239Z,4.85
2022-10-09T08:57:52.172Z,6.57
2022-10-09T09:00:19.986Z,6.35
2022-10-09T09:02:52.999Z,5.85
2022-10-09T09:05:19.589Z,9.43
2022-10-09T09:07:46.010Z,6.10
2022-10-09T09:10:18.144Z,5.05
2022-10-09T09:12:52.139Z,6.43
2022-10-09T09:17:57.130Z,5.15
2022-10-09T09:20:29.279Z,6.40
2022-10-09T09:22:56.454Z,4.00
2022-10-09T09:25:28.331Z,6.65
2022-10-09T09:27:57.413Z,4.20
2022-10-09T09:30:26.521Z,5.55
2022-10-09T09:33:02.295Z,4.65
2022-10-09T09:35:35.934Z,6.05
2022-10-09T09:38:02.516Z,6.97
2022-10-09T09:40:38.265Z,4.30
2022-10-09T09:43:21.981Z,5.65
2022-10-09T09:45:49.146Z,6.47
2022-10-09T09:48:17.442Z,7.50
2022-10-09T09:50:56.450Z,4.72
2022-10-09T09:53:32.289Z,6.07
2022-10-09T09:55:58.958Z,5.97
2022-10-09T09:58:32.490Z,5.10
2022-10-09T10:01:01.460Z,6.82
2022-10-09T10:03:28.010Z,5.97
2022-10-09T10:05:54.552Z,6.10
2022-10-09T10:08:28.596Z,5.85
2022-10-09T10:11:02.200Z,4.32
2022-10-09T10:13:32.493Z,5.65
2022-10-09T10:15:59.175Z,7.22
2022-10-09T10:18:28.200Z,4.53
2022-10-09T10:20:56.072Z,4.95
2022-10-09T10:23:31.373Z,6.10
2022-10-09T10:25:58.508Z,4.72
2022-10-09T10:28:27.975Z,7.05
2022-10-09T10:30:56.176Z,3.90
2022-10-09T10:33:25.337Z,4.85
2022-10-09T10:35:52.903Z,6.00
2022-10-09T10:38:34.736Z,5.90
2022-10-09T10:41:10.295Z,6.00
2022-10-09T10:44:09.390Z,3.85
2022-10-09T10:46:42.095Z,5.55
2022-10-09T10:49:10.527Z,5.50
2022-10-09T10:51:55.495Z,7.88
2022-10-09T10:54:21.906Z,6.47
2022-10-09T10:56:51.085Z,8.27
2022-10-09T10:59:35.869Z,6.82
2022-10-09T11:02:21.027Z,6.15
2022-10-09T11:04:50.397Z,5.38
2022-10-09T11:07:26.179Z,4.22
2022-10-09T11:10:11.292Z,4.53
2022-10-09T11:12:50.518Z,5.03
2022-10-09T11:15:17.686Z,5.95
2022-10-09T11:18:03.082Z,4.60
2022-10-09T11:20:48.148Z,4.70
2022-10-09T11:23:35.657Z,5.45
2022-10-09T11:26:05.132Z,5.47
2022-10-09T11:28:37.575Z,6.38
2022-10-09T11:31:10.042Z,4.78
2022-10-09T11:33:45.354Z,4.93
2022-10-09T11:36:18.470Z,5.65
2022-10-09T11:39:03.865Z,4.90
2022-10-09T11:41:31.082Z,4.57
2022-10-09T11:43:57.485Z,4.53
2022-10-09T11:46:36.282Z,5.50
2022-10-09T11:49:05.528Z,4.78
2022-10-09T11:51:41.757Z,7.10
2022-10-09T11:54:13.623Z,6.22
2022-10-09T11:56:40.086Z,6.63
2022-10-09T11:59:07.225Z,6.80
2022-10-09T12:01:33.763Z,6.47
2022-10-09T12:04:06.362Z,5.35
2022-10-09T12:06:44.932Z,6.65
2022-10-09T12:09:19.442Z,4.95
2022-10-09T12:11:54.391Z,5.40
2022-10-09T12:14:24.353Z,5.38
2022-10-09T12:16:50.883Z,6.05
2022-10-09T12:19:25.676Z,6.68
2022-10-09T12:21:55.790Z,5.00
2022-10-09T12:24:26.867Z,5.45
2022-10-09T12:26:54.691Z,5.82
2022-10-09T12:29:26.819Z,7.90
2022-10-09T12:31:56.126Z,5.30
2022-10-09T12:34:37.791Z,4.90
2022-10-09T12:37:12.329Z,4.43
2022-10-09T12:39:38.825Z,5.45
2022-10-09T12:42:05.521Z,7.07
2022-10-09T12:44:36.667Z,5.43
2022-10-09T12:47:14.195Z,5.88
2022-10-09T12:49:40.658Z,6.15
2022-10-09T12:52:14.189Z,7.45
2022-10-09T12:54:43.038Z,6.28
2022-10-09T12:57:12.695Z,5.32
2022-10-09T12:59:39.545Z,5.57
2022-10-09T13:02:10.387Z,6.68
2022-10-09T13:04:36.997Z,5.60
2022-10-09T13:07:07.620Z,5.78
2022-10-09T13:09:35.317Z,6.68
2022-10-09T13:12:06.353Z,6.45
2022-10-09T13:14:32.884Z,8.18
2022-10-09T13:16:59.381Z,6.10
2022-10-09T13:19:27.561Z,5.10
2022-10-09T13:22:00.609Z,5.53
2022-10-09T13:24:27.157Z,4.80
2022-10-09T13:26:54.163Z,4.03
2022-10-09T13:29:21.080Z,6.95
2022-10-09T13:31:47.687Z,5.88
2022-10-09T13:34:14.483Z,6.60
2022-10-09T13:36:41.222Z,6.07
2022-10-09T13:39:13.164Z,4.35
2022-10-09T13:41:39.631Z,5.50
2022-10-09T13:44:06.061Z,6.93
2022-10-09T13:46:32.547Z,6.00
2022-10-09T13:48:59.090Z,4.35
2022-10-09T13:51:25.596Z,7.78
2022-10-09T13:53:52.059Z,5.07
2022-10-09T13:56:18.510Z,7.10
2022-10-09T13:58:45.186Z,7.93
2022-10-09T14:01:11.794Z,6.55
2022-10-09T14:03:38.235Z,6.88
2022-10-09T14:06:04.871Z,8.10
2022-10-09T14:08:31.406Z,7.22
2022-10-09T14:11:01.276Z,6.32
2022-10-09T14:13:28.604Z,6.15
2022-10-09T14:15:55.540Z,6.50
2022-10-09T14:18:22.155Z,6.75
2022-10-09T14:20:48.761Z,7.43
2022-10-09T14:23:15.360Z,7.28
2022-10-09T14:25:41.966Z,7.40
2022-10-09T14:28:08.576Z,8.63
2022-10-09T14:30:35.070Z,8.20
2022-10-09T14:33:01.538Z,11.15
2022-10-09T14:35:27.968Z,11.25
2022-10-09T14:37:54.405Z,10.90
2022-10-09T14:40:20.885Z,7.68
2022-10-09T14:42:47.657Z,7.32
2022-10-09T14:45:14.366Z,7.18
2022-10-09T14:47:40.812Z,6.60
2022-10-09T14:50:07.850Z,5.60
2022-10-09T14:52:34.334Z,7.63
2022-10-09T14:55:00.888Z,6.00
2022-10-09T14:57:30.258Z,6.65
2022-10-09T14:59:59.422Z,7.10
2022-10-09T15:02:25.939Z,6.90
2022-10-09T15:04:52.405Z,5.78
2022-10-09T15:07:18.815Z,9.80
2022-10-09T15:09:45.295Z,7.40
2022-10-09T15:12:11.751Z,8.95
2022-10-09T15:14:38.320Z,10.10
2022-10-09T15:17:04.767Z,7.18
2022-10-09T15:19:31.304Z,7.47
2022-10-09T15:21:57.736Z,9.82
2022-10-09T15:24:24.216Z,8.23
2022-10-09T15:26:50.634Z,7.90
2022-10-09T15:29:17.061Z,10.18
2022-10-09T15:31:43.748Z,8.77
2022-10-09T15:34:14.225Z,11.00
2022-10-09T15:36:43.179Z,12.20
2022-10-09T15:39:09.822Z,15.80
2022-10-09T15:41:37.945Z,15.80
2022-10-09T15:44:06.097Z,17.73
2022-10-09T15:46:32.993Z,18.73
2022-10-09T15:48:59.462Z,18.05
2022-10-09T15:51:26.131Z,17.02
2022-10-09T15:53:52.996Z,15.77
2022-10-09T15:56:21.722Z,15.18
2022-10-09T15:58:48.847Z,16.38
2022-10-09T16:01:16.225Z,16.33
2022-10-09T16:03:43.142Z,14.50
2022-10-09T16:06:11.054Z,16.00
2022-10-09T16:08:37.497Z,13.18
2022-10-09T16:11:06.038Z,14.45
2022-10-09T16:13:32.646Z,14.27
2022-10-09T16:15:59.753Z,14.40
2022-10-09T16:18:26.228Z,13.82
2022-10-09T16:20:52.665Z,14.75
2022-10-09T16:23:19.173Z,16.45
2022-10-09T16:25:56.068Z,15.70
2022-10-09T16:28:22.653Z,16.60
2022-10-09T16:30:49.142Z,16.05
2022-10-09T16:33:15.663Z,15.63
2022-10-09T16:35:42.140Z,18.00
2022-10-09T16:38:09.045Z,19.42
2022-10-09T16:41:01.028Z,16.92
2022-10-09T16:43:22.284Z,18.23
2022-10-09T16:45:48.926Z,18.83
2022-10-09T16:48:15.632Z,21.83
2022-10-09T16:50:42.384Z,20.17
2022-10-09T16:53:09.330Z,21.40
2022-10-09T16:55:36.254Z,20.92
2022-10-09T16:58:02.833Z,27.67
2022-10-09T17:00:29.402Z,23.58
2022-10-09T17:02:56.602Z,24.60
2022-10-09T17:05:25.441Z,27.75
2022-10-09T17:07:52.454Z,28.92
2022-10-09T17:10:19.287Z,27.17
2022-10-09T17:12:45.729Z,25.58
2022-10-09T17:15:13.480Z,26.52
2022-10-09T17:17:40.125Z,29.70
2022-10-09T17:20:07.257Z,34.30
2022-10-09T17:22:33.791Z,42.75
2022-10-09T17:25:00.221Z,54.85
2022-10-09T17:27:26.667Z,51.42
2022-10-09T17:29:53.088Z,55.92
2022-10-09T17:32:19.556Z,60.10
2022-10-09T17:34:46.164Z,62.22
2022-10-09T17:37:13.148Z,64.75
2022-10-09T17:39:39.776Z,75.50
2022-10-09T17:42:06.208Z,72.43
2022-10-09T17:44:32.714Z,63.95
2022-10-09T17:47:00.837Z,60.83
2022-10-09T17:49:27.357Z,67.00
2022-10-09T17:51:54.541Z,77.55
2022-10-09T17:54:21.475Z,91.22
2022-10-09T17:56:47.947Z,103.57
2022-10-09T17:59:15.695Z,85.13
2022-10-09T18:01:42.654Z,82.72
2022-10-09T18:04:11.179Z,86.45
2022-10-09T18:06:37.628Z,87.60
2022-10-09T18:09:04.400Z,92.30
2022-10-09T18:11:30.927Z,100.13
2022-10-09T18:13:57.434Z,100.47
2022-10-09T18:16:32.707Z,104.15
2022-10-09T18:19:06.337Z,103.15
2022-10-09T18:21:34.279Z,109.05
2022-10-09T18:24:00.787Z,105.82
2022-10-09T18:26:28.494Z,106.38
2022-10-09T18:28:54.966Z,88.95
2022-10-09T18:31:23.610Z,88.65
2022-10-09T18:33:50.436Z,85.30
2022-10-09T18:36:20.655Z,89.00
2022-10-09T18:38:48.075Z,77.30
2022-10-09T18:41:14.853Z,84.13
2022-10-09T18:43:41.421Z,80.10
2022-10-09T18:46:08.631Z,78.82
2022-10-09T18:48:36.737Z,75.40
2022-10-09T18:51:04.809Z,76.15
2022-10-09T18:53:31.778Z,78.90
2022-10-09T18:55:58.405Z,81.13
2022-10-09T18:58:24.869Z,79.53
2022-10-09T19:00:51.389Z,72.93
2022-10-09T19:03:17.977Z,72.43
2022-10-09T19:05:45.096Z,67.32
2022-10-09T19:08:11.874Z,71.05
2022-10-09T19:10:38.292Z,67.45
2022-10-09T19:13:04.834Z,73.22
2022-10-09T19:15:31.263Z,73.53
2022-10-09T19:17:57.762Z,74.97
2022-10-09T19:20:24.271Z,72.43
2022-10-09T19:22:50.918Z,80.05
2022-10-09T19:25:17.402Z,79.47
2022-10-09T19:27:43.902Z,85.55
2022-10-09T19:30:10.519Z,92.40
2022-10-09T19:32:37.110Z,78.38
2022-10-09T19:35:03.774Z,82.85
2022-10-09T19:37:30.353Z,87.13
2022-10-09T19:39:56.994Z,88.35
2022-10-09T19:42:24.750Z,83.50
2022-10-09T19:44:51.337Z,84.97
2022-10-09T19:47:21.920Z,86.93
2022-10-09T19:49:48.431Z,105.95
2022-10-09T19:52:14.981Z,124.07
2022-10-09T19:54:41.507Z,142.55
2022-10-09T19:57:07.917Z,104.93
2022-10-09T19:59:34.440Z,98.55
2022-10-09T20:02:00.946Z,91.97
2022-10-09T20:04:27.494Z,90.85
2022-10-09T20:06:54.026Z,83.25
2022-10-09T20:09:20.909Z,81.85
2022-10-09T20:11:47.446Z,80.85
2022-10-09T20:14:13.929Z,75.82
2022-10-09T20:16:40.397Z,64.22
2022-10-09T20:19:07.169Z,68.40
2022-10-09T20:21:34.083Z,65.60
2022-10-09T20:24:01.233Z,66.05
2022-10-09T20:26:28.239Z,66.22
2022-10-09T20:28:55.011Z,68.38
2022-10-09T20:31:23.582Z,90.18
2022-10-09T20:33:50.774Z,117.70
2022-10-09T20:36:21.579Z,123.47
2022-10-09T20:38:48.328Z,116.90
2022-10-09T20:41:14.856Z,115.53
2022-10-09T20:43:41.340Z,109.22
2022-10-09T20:46:13.449Z,100.57
2022-10-09T20:48:40.902Z,93.57
2022-10-09T20:51:07.398Z,74.47
2022-10-09T20:53:33.820Z,64.75
2022-10-09T20:56:01.098Z,57.85
2022-10-09T20:58:27.859Z,54.22
2022-10-09T21:00:54.356Z,53.67
2022-10-09T21:03:20.833Z,53.90
2022-10-09T21:05:47.320Z,51.95
2022-10-09T21:08:13.756Z,49.60
2022-10-09T21:10:47.438Z,47.95
2022-10-09T21:13:13.950Z,45.95
2022-10-09T21:15:43.563Z,48.53
2022-10-09T21:18:10.692Z,44.75
2022-10-09T21:20:41.126Z,41.03
2022-10-09T21:23:07.805Z,40.55
2022-10-09T21:25:34.253Z,38.28
2022-10-09T21:28:00.822Z,39.50
2022-10-09T21:30:27.856Z,36.85
2022-10-09T21:32:54.571Z,35.45
2022-10-09T21:35:21.514Z,38.08
2022-10-09T21:37:49.323Z,35.58
2022-10-09T21:40:16.859Z,33.13
2022-10-09T21:42:43.295Z,33.05
2022-10-09T21:45:09.849Z,37.92
2022-10-09T21:47:36.277Z,36.42
2022-10-09T21:50:02.978Z,36.78
2022-10-09T21:52:29.487Z,34.60
2022-10-09T21:54:55.897Z,34.53
2022-10-09T21:57:22.356Z,34.80
2022-10-09T21:59:48.825Z,34.30
2022-10-09T22:02:15.232Z,38.45
2022-10-09T22:04:41.673Z,37.45
2022-10-09T22:07:08.097Z,39.30
2022-10-09T22:09:34.602Z,39.17
2022-10-09T22:12:01.239Z,39.72
2022-10-09T22:14:27.716Z,42.55
2022-10-09T22:16:54.153Z,41.28
2022-10-09T22:19:20.577Z,38.90
2022-10-09T22:21:48.428Z,38.20
2022-10-09T22:24:14.937Z,36.15
2022-10-09T22:26:41.397Z,36.53
2022-10-09T22:29:07.845Z,35.50
2022-10-09T22:31:34.251Z,34.15
2022-10-09T22:34:01.221Z,35.05
2022-10-09T22:36:29.969Z,32.25
2022-10-09T22:38:57.296Z,29.33
2022-10-09T22:41:24.539Z,32.08
2022-10-09T22:43:52.279Z,27.67
2022-10-09T22:46:19.984Z,26.98
2022-10-09T22:48:46.565Z,27.85
2022-10-09T22:51:14.555Z,30.40
2022-10-09T22:53:41.955Z,33.40
2022-10-09T22:56:09.825Z,30.02
2022-10-09T22:58:36.279Z,30.33
2022-10-09T23:08:43.908Z,34.35
2022-10-09T23:11:10.842Z,31.80
2022-10-09T23:13:37.894Z,31.25
2022-10-09T23:16:05.734Z,30.85
2022-10-09T23:18:32.628Z,32.05
2022-10-09T23:21:01.977Z,32.97
2022-10-09T23:23:29.636Z,32.60
2022-10-09T23:25:56.068Z,35.15
2022-10-09T23:28:22.537Z,35.35
2022-10-09T23:30:49.079Z,28.33
2022-10-09T23:33:15.513Z,32.85
2022-10-09T23:35:42.760Z,30.98
2022-10-09T23:38:09.228Z,32.20
2022-10-09T23:40:35.738Z,32.95
2022-10-09T23:43:02.159Z,31.13
2022-10-09T23:45:28.588Z,33.15
2022-10-09T23:47:55.059Z,34.00
2022-10-09T23:50:21.467Z,33.92
2022-10-09T23:52:48.073Z,34.75
2022-10-09T23:55:14.707Z,31.50
2022-10-09T23:57:41.204Z,29.90
